sensor_id;sensor_type;location;lat;lon;timestamp;P1;durP1;ratioP1;P2;durP2;ratioP2
21472;SDS011;10898;48.072;11.682;2023-04-22T00:01:21;3.20;;;2.90;;
21472;SDS011;10898;48.072;11.682;2023-04-22T00:03:24;3.92;;;3.10;;
21472;SDS011;10898;48.072;11.682;2023-04-22T00:05:28;6.18;;;3.45;;
21472;SDS011;10898;48.072;11.682;2023-04-22T00:07:30;3.85;;;3.00;;
21472;SDS011;10898;48.072;11.682;2023-04-22T00:09:32;3.42;;;2.80;;
21472;SDS011;10898;48.072;11.682;2023-04-22T00:11:34;4.45;;;3.05;;
21472;SDS011;10898;48.072;11.682;2023-04-22T00:13:37;3.45;;;3.15;;
21472;SDS011;10898;48.072;11.682;2023-04-22T00:15:39;3.28;;;2.97;;
21472;SDS011;10898;48.072;11.682;2023-04-22T00:17:41;3.80;;;3.08;;
21472;SDS011;10898;48.072;11.682;2023-04-22T00:19:46;3.20;;;2.85;;
21472;SDS011;10898;48.072;11.682;2023-04-22T00:21:48;3.40;;;3.10;;
21472;SDS011;10898;48.072;11.682;2023-04-22T00:23:50;3.80;;;2.67;;
21472;SDS011;10898;48.072;11.682;2023-04-22T00:25:52;2.90;;;2.65;;
21472;SDS011;10898;48.072;11.682;2023-04-22T00:27:54;3.33;;;2.85;;
21472;SDS011;10898;48.072;11.682;2023-04-22T00:29:56;3.28;;;2.88;;
21472;SDS011;10898;48.072;11.682;2023-04-22T00:31:59;3.33;;;2.85;;
21472;SDS011;10898;48.072;11.682;2023-04-22T00:34:01;2.55;;;2.35;;
21472;SDS011;10898;48.072;11.682;2023-04-22T00:36:03;3.20;;;2.90;;
21472;SDS011;10898;48.072;11.682;2023-04-22T00:38:05;2.88;;;2.58;;
21472;SDS011;10898;48.072;11.682;2023-04-22T00:40:08;4.53;;;2.95;;
21472;SDS011;10898;48.072;11.682;2023-04-22T00:42:10;4.85;;;2.30;;
21472;SDS011;10898;48.072;11.682;2023-04-22T00:44:14;3.17;;;2.47;;
21472;SDS011;10898;48.072;11.682;2023-04-22T00:46:16;3.42;;;2.88;;
21472;SDS011;10898;48.072;11.682;2023-04-22T00:48:18;4.45;;;3.25;;
21472;SDS011;10898;48.072;11.682;2023-04-22T00:50:21;2.78;;;2.50;;
21472;SDS011;10898;48.072;11.682;2023-04-22T00:52:23;3.53;;;2.88;;
21472;SDS011;10898;48.072;11.682;2023-04-22T00:54:25;2.97;;;2.78;;
21472;SDS011;10898;48.072;11.682;2023-04-22T00:56:29;4.65;;;3.03;;
21472;SDS011;10898;48.072;11.682;2023-04-22T00:58:32;3.20;;;2.90;;
21472;SDS011;10898;48.072;11.682;2023-04-22T01:00:35;4.03;;;2.28;;
21472;SDS011;10898;48.072;11.682;2023-04-22T01:02:37;4.00;;;2.90;;
21472;SDS011;10898;48.072;11.682;2023-04-22T01:04:40;3.20;;;2.90;;
21472;SDS011;10898;48.072;11.682;2023-04-22T01:06:42;3.67;;;2.83;;
21472;SDS011;10898;48.072;11.682;2023-04-22T01:08:45;3.28;;;2.97;;
21472;SDS011;10898;48.072;11.682;2023-04-22T01:10:47;3.03;;;2.83;;
21472;SDS011;10898;48.072;11.682;2023-04-22T01:12:49;3.17;;;2.88;;
21472;SDS011;10898;48.072;11.682;2023-04-22T01:14:51;3.00;;;2.78;;
21472;SDS011;10898;48.072;11.682;2023-04-22T01:16:54;3.67;;;2.92;;
21472;SDS011;10898;48.072;11.682;2023-04-22T01:18:56;5.68;;;2.80;;
21472;SDS011;10898;48.072;11.682;2023-04-22T01:20:59;3.45;;;3.15;;
21472;SDS011;10898;48.072;11.682;2023-04-22T01:23:02;3.65;;;3.30;;
21472;SDS011;10898;48.072;11.682;2023-04-22T01:25:04;3.20;;;2.90;;
21472;SDS011;10898;48.072;11.682;2023-04-22T01:27:07;4.82;;;3.03;;
21472;SDS011;10898;48.072;11.682;2023-04-22T01:31:12;3.70;;;2.92;;
21472;SDS011;10898;48.072;11.682;2023-04-22T01:33:14;3.75;;;3.30;;
21472;SDS011;10898;48.072;11.682;2023-04-22T01:35:17;3.88;;;3.30;;
21472;SDS011;10898;48.072;11.682;2023-04-22T01:37:19;3.05;;;2.80;;
21472;SDS011;10898;48.072;11.682;2023-04-22T01:39:21;3.95;;;3.13;;
21472;SDS011;10898;48.072;11.682;2023-04-22T01:41:24;3.20;;;2.90;;
21472;SDS011;10898;48.072;11.682;2023-04-22T01:43:26;3.22;;;2.92;;
21472;SDS011;10898;48.072;11.682;2023-04-22T01:45:29;3.70;;;3.40;;
21472;SDS011;10898;48.072;11.682;2023-04-22T01:47:31;3.45;;;3.15;;
21472;SDS011;10898;48.072;11.682;2023-04-22T01:49:34;4.07;;;3.60;;
21472;SDS011;10898;48.072;11.682;2023-04-22T01:51:36;6.53;;;3.70;;
21472;SDS011;10898;48.072;11.682;2023-04-22T01:53:38;3.83;;;3.38;;
21472;SDS011;10898;48.072;11.682;2023-04-22T01:55:40;4.30;;;3.90;;
21472;SDS011;10898;48.072;11.682;2023-04-22T01:57:43;3.45;;;2.95;;
21472;SDS011;10898;48.072;11.682;2023-04-22T01:59:46;3.78;;;3.47;;
21472;SDS011;10898;48.072;11.682;2023-04-22T02:01:48;3.92;;;3.42;;
21472;SDS011;10898;48.072;11.682;2023-04-22T02:03:50;5.38;;;3.03;;
21472;SDS011;10898;48.072;11.682;2023-04-22T02:05:53;3.40;;;3.10;;
21472;SDS011;10898;48.072;11.682;2023-04-22T02:07:55;3.70;;;3.38;;
21472;SDS011;10898;48.072;11.682;2023-04-22T02:09:57;3.78;;;2.95;;
21472;SDS011;10898;48.072;11.682;2023-04-22T02:11:59;3.38;;;3.08;;
21472;SDS011;10898;48.072;11.682;2023-04-22T02:14:01;3.80;;;3.30;;
21472;SDS011;10898;48.072;11.682;2023-04-22T02:16:04;4.10;;;2.90;;
21472;SDS011;10898;48.072;11.682;2023-04-22T02:18:06;4.57;;;3.55;;
21472;SDS011;10898;48.072;11.682;2023-04-22T02:20:10;4.75;;;2.88;;
21472;SDS011;10898;48.072;11.682;2023-04-22T02:22:12;3.67;;;3.10;;
21472;SDS011;10898;48.072;11.682;2023-04-22T02:24:15;3.60;;;3.28;;
21472;SDS011;10898;48.072;11.682;2023-04-22T02:26:17;8.63;;;3.10;;
21472;SDS011;10898;48.072;11.682;2023-04-22T02:28:19;2.75;;;2.55;;
21472;SDS011;10898;48.072;11.682;2023-04-22T02:30:23;2.95;;;2.72;;
21472;SDS011;10898;48.072;11.682;2023-04-22T02:32:25;3.80;;;3.42;;
21472;SDS011;10898;48.072;11.682;2023-04-22T02:34:27;3.28;;;2.97;;
21472;SDS011;10898;48.072;11.682;2023-04-22T02:36:30;3.65;;;3.35;;
21472;SDS011;10898;48.072;11.682;2023-04-22T02:38:32;3.30;;;2.95;;
21472;SDS011;10898;48.072;11.682;2023-04-22T02:40:34;3.42;;;3.13;;
21472;SDS011;10898;48.072;11.682;2023-04-22T02:42:37;3.47;;;3.15;;
21472;SDS011;10898;48.072;11.682;2023-04-22T02:44:39;4.57;;;3.60;;
21472;SDS011;10898;48.072;11.682;2023-04-22T02:46:41;3.47;;;3.17;;
21472;SDS011;10898;48.072;11.682;2023-04-22T02:48:44;2.80;;;2.60;;
21472;SDS011;10898;48.072;11.682;2023-04-22T02:50:46;3.08;;;2.88;;
21472;SDS011;10898;48.072;11.682;2023-04-22T02:52:48;3.47;;;2.90;;
21472;SDS011;10898;48.072;11.682;2023-04-22T02:54:51;3.33;;;3.03;;
21472;SDS011;10898;48.072;11.682;2023-04-22T02:56:53;3.70;;;3.40;;
21472;SDS011;10898;48.072;11.682;2023-04-22T02:58:56;3.60;;;3.05;;
21472;SDS011;10898;48.072;11.682;2023-04-22T03:00:58;3.38;;;3.08;;
21472;SDS011;10898;48.072;11.682;2023-04-22T03:03:00;8.73;;;3.10;;
21472;SDS011;10898;48.072;11.682;2023-04-22T03:05:03;3.65;;;2.88;;
21472;SDS011;10898;48.072;11.682;2023-04-22T03:07:05;2.90;;;2.53;;
21472;SDS011;10898;48.072;11.682;2023-04-22T03:09:07;3.40;;;2.83;;
21472;SDS011;10898;48.072;11.682;2023-04-22T03:11:10;2.95;;;2.72;;
21472;SDS011;10898;48.072;11.682;2023-04-22T03:13:14;4.95;;;2.72;;
21472;SDS011;10898;48.072;11.682;2023-04-22T03:15:16;3.10;;;2.80;;
21472;SDS011;10898;48.072;11.682;2023-04-22T03:17:21;4.60;;;2.83;;
21472;SDS011;10898;48.072;11.682;2023-04-22T03:19:23;2.95;;;2.75;;
21472;SDS011;10898;48.072;11.682;2023-04-22T03:21:26;3.50;;;3.20;;
21472;SDS011;10898;48.072;11.682;2023-04-22T03:25:31;3.47;;;3.17;;
21472;SDS011;10898;48.072;11.682;2023-04-22T03:27:33;3.75;;;3.30;;
21472;SDS011;10898;48.072;11.682;2023-04-22T03:29:35;2.97;;;2.78;;
21472;SDS011;10898;48.072;11.682;2023-04-22T03:33:40;3.10;;;2.80;;
21472;SDS011;10898;48.072;11.682;2023-04-22T03:35:42;6.03;;;3.25;;
21472;SDS011;10898;48.072;11.682;2023-04-22T03:37:45;3.30;;;3.00;;
21472;SDS011;10898;48.072;11.682;2023-04-22T03:39:47;3.83;;;3.10;;
21472;SDS011;10898;48.072;11.682;2023-04-22T03:41:49;3.65;;;3.00;;
21472;SDS011;10898;48.072;11.682;2023-04-22T03:43:51;4.70;;;3.05;;
21472;SDS011;10898;48.072;11.682;2023-04-22T03:45:53;3.38;;;3.08;;
21472;SDS011;10898;48.072;11.682;2023-04-22T03:47:56;3.20;;;2.92;;
21472;SDS011;10898;48.072;11.682;2023-04-22T03:49:58;2.63;;;2.42;;
21472;SDS011;10898;48.072;11.682;2023-04-22T03:54:03;3.10;;;2.90;;
21472;SDS011;10898;48.072;11.682;2023-04-22T03:56:05;3.05;;;2.80;;
21472;SDS011;10898;48.072;11.682;2023-04-22T03:58:07;3.40;;;3.10;;
21472;SDS011;10898;48.072;11.682;2023-04-22T04:00:10;3.25;;;2.95;;
21472;SDS011;10898;48.072;11.682;2023-04-22T04:02:12;3.33;;;2.80;;
21472;SDS011;10898;48.072;11.682;2023-04-22T04:04:14;2.58;;;2.38;;
21472;SDS011;10898;48.072;11.682;2023-04-22T04:08:19;2.90;;;2.70;;
21472;SDS011;10898;48.072;11.682;2023-04-22T04:10:21;2.95;;;2.75;;
21472;SDS011;10898;48.072;11.682;2023-04-22T04:12:23;3.33;;;2.58;;
21472;SDS011;10898;48.072;11.682;2023-04-22T04:14:26;3.33;;;3.03;;
21472;SDS011;10898;48.072;11.682;2023-04-22T04:16:28;3.92;;;2.75;;
21472;SDS011;10898;48.072;11.682;2023-04-22T04:18:30;2.85;;;2.60;;
21472;SDS011;10898;48.072;11.682;2023-04-22T04:22:35;2.50;;;2.30;;
21472;SDS011;10898;48.072;11.682;2023-04-22T04:24:37;2.72;;;2.53;;
21472;SDS011;10898;48.072;11.682;2023-04-22T04:26:42;3.85;;;2.67;;
21472;SDS011;10898;48.072;11.682;2023-04-22T04:28:44;4.85;;;2.97;;
21472;SDS011;10898;48.072;11.682;2023-04-22T04:32:49;2.80;;;2.55;;
21472;SDS011;10898;48.072;11.682;2023-04-22T04:34:52;4.05;;;2.63;;
21472;SDS011;10898;48.072;11.682;2023-04-22T04:36:54;4.10;;;2.65;;
21472;SDS011;10898;48.072;11.682;2023-04-22T04:38:57;3.42;;;2.53;;
21472;SDS011;10898;48.072;11.682;2023-04-22T04:40:59;3.22;;;2.92;;
21472;SDS011;10898;48.072;11.682;2023-04-22T04:43:01;2.67;;;2.47;;
21472;SDS011;10898;48.072;11.682;2023-04-22T04:45:08;3.17;;;2.95;;
21472;SDS011;10898;48.072;11.682;2023-04-22T04:47:11;3.22;;;2.80;;
21472;SDS011;10898;48.072;11.682;2023-04-22T04:49:13;3.00;;;2.80;;
21472;SDS011;10898;48.072;11.682;2023-04-22T04:51:15;3.05;;;2.85;;
21472;SDS011;10898;48.072;11.682;2023-04-22T04:53:20;2.80;;;2.60;;
21472;SDS011;10898;48.072;11.682;2023-04-22T04:55:23;4.10;;;2.78;;
21472;SDS011;10898;48.072;11.682;2023-04-22T04:57:25;2.65;;;2.45;;
21472;SDS011;10898;48.072;11.682;2023-04-22T04:59:27;2.58;;;2.38;;
21472;SDS011;10898;48.072;11.682;2023-04-22T05:01:29;4.93;;;2.65;;
21472;SDS011;10898;48.072;11.682;2023-04-22T05:03:32;2.80;;;2.60;;
21472;SDS011;10898;48.072;11.682;2023-04-22T05:05:34;2.95;;;2.63;;
21472;SDS011;10898;48.072;11.682;2023-04-22T05:07:36;3.05;;;2.75;;
21472;SDS011;10898;48.072;11.682;2023-04-22T05:09:39;2.88;;;2.63;;
21472;SDS011;10898;48.072;11.682;2023-04-22T05:11:42;2.72;;;2.53;;
21472;SDS011;10898;48.072;11.682;2023-04-22T05:13:44;2.60;;;2.40;;
21472;SDS011;10898;48.072;11.682;2023-04-22T05:15:46;3.15;;;2.25;;
21472;SDS011;10898;48.072;11.682;2023-04-22T05:17:49;2.65;;;2.30;;
21472;SDS011;10898;48.072;11.682;2023-04-22T05:19:51;3.03;;;2.55;;
21472;SDS011;10898;48.072;11.682;2023-04-22T05:21:53;2.42;;;2.20;;
21472;SDS011;10898;48.072;11.682;2023-04-22T05:23:55;2.45;;;2.25;;
21472;SDS011;10898;48.072;11.682;2023-04-22T05:25:58;2.88;;;2.40;;
21472;SDS011;10898;48.072;11.682;2023-04-22T05:28:00;3.38;;;2.17;;
21472;SDS011;10898;48.072;11.682;2023-04-22T05:30:02;3.00;;;2.50;;
21472;SDS011;10898;48.072;11.682;2023-04-22T05:32:05;2.38;;;2.17;;
21472;SDS011;10898;48.072;11.682;2023-04-22T05:34:09;2.25;;;2.05;;
21472;SDS011;10898;48.072;11.682;2023-04-22T05:36:12;2.70;;;2.22;;
21472;SDS011;10898;48.072;11.682;2023-04-22T05:38:14;2.25;;;2.10;;
21472;SDS011;10898;48.072;11.682;2023-04-22T05:40:17;2.28;;;2.08;;
21472;SDS011;10898;48.072;11.682;2023-04-22T05:42:19;2.50;;;2.30;;
21472;SDS011;10898;48.072;11.682;2023-04-22T05:44:21;2.58;;;2.38;;
21472;SDS011;10898;48.072;11.682;2023-04-22T05:46:23;2.40;;;1.77;;
21472;SDS011;10898;48.072;11.682;2023-04-22T05:48:25;2.30;;;2.10;;
21472;SDS011;10898;48.072;11.682;2023-04-22T05:50:28;3.00;;;1.98;;
21472;SDS011;10898;48.072;11.682;2023-04-22T05:52:30;1.88;;;1.77;;
21472;SDS011;10898;48.072;11.682;2023-04-22T05:54:34;2.10;;;1.83;;
21472;SDS011;10898;48.072;11.682;2023-04-22T05:56:36;2.30;;;1.85;;
21472;SDS011;10898;48.072;11.682;2023-04-22T05:58:38;2.88;;;2.00;;
21472;SDS011;10898;48.072;11.682;2023-04-22T06:00:40;2.05;;;1.95;;
21472;SDS011;10898;48.072;11.682;2023-04-22T06:02:42;2.38;;;1.67;;
21472;SDS011;10898;48.072;11.682;2023-04-22T06:04:45;3.28;;;2.17;;
21472;SDS011;10898;48.072;11.682;2023-04-22T06:06:47;3.35;;;1.60;;
21472;SDS011;10898;48.072;11.682;2023-04-22T06:08:50;2.15;;;1.95;;
21472;SDS011;10898;48.072;11.682;2023-04-22T06:10:52;1.83;;;1.73;;
21472;SDS011;10898;48.072;11.682;2023-04-22T06:12:54;3.10;;;1.60;;
21472;SDS011;10898;48.072;11.682;2023-04-22T06:14:56;2.58;;;1.90;;
21472;SDS011;10898;48.072;11.682;2023-04-22T06:16:58;1.83;;;1.73;;
21472;SDS011;10898;48.072;11.682;2023-04-22T06:19:01;1.88;;;1.67;;
21472;SDS011;10898;48.072;11.682;2023-04-22T06:21:03;1.50;;;1.40;;
21472;SDS011;10898;48.072;11.682;2023-04-22T06:23:05;3.35;;;1.92;;
21472;SDS011;10898;48.072;11.682;2023-04-22T06:25:07;1.60;;;1.50;;
21472;SDS011;10898;48.072;11.682;2023-04-22T06:27:09;4.45;;;2.15;;
21472;SDS011;10898;48.072;11.682;2023-04-22T06:29:12;2.58;;;1.75;;
21472;SDS011;10898;48.072;11.682;2023-04-22T06:31:14;2.00;;;1.70;;
21472;SDS011;10898;48.072;11.682;2023-04-22T06:33:18;1.98;;;1.77;;
21472;SDS011;10898;48.072;11.682;2023-04-22T06:35:21;1.92;;;1.80;;
21472;SDS011;10898;48.072;11.682;2023-04-22T06:37:23;1.45;;;1.35;;
21472;SDS011;10898;48.072;11.682;2023-04-22T06:39:27;1.60;;;1.50;;
21472;SDS011;10898;48.072;11.682;2023-04-22T06:41:29;2.67;;;1.75;;
21472;SDS011;10898;48.072;11.682;2023-04-22T06:43:31;1.63;;;1.52;;
21472;SDS011;10898;48.072;11.682;2023-04-22T06:45:33;1.63;;;1.45;;
21472;SDS011;10898;48.072;11.682;2023-04-22T06:47:35;3.95;;;1.52;;
21472;SDS011;10898;48.072;11.682;2023-04-22T06:49:37;1.40;;;1.30;;
21472;SDS011;10898;48.072;11.682;2023-04-22T06:53:42;1.33;;;1.23;;
21472;SDS011;10898;48.072;11.682;2023-04-22T06:55:45;1.52;;;1.42;;
21472;SDS011;10898;48.072;11.682;2023-04-22T06:57:47;1.48;;;1.38;;
21472;SDS011;10898;48.072;11.682;2023-04-22T06:59:49;2.13;;;1.40;;
21472;SDS011;10898;48.072;11.682;2023-04-22T07:01:51;1.75;;;1.35;;
21472;SDS011;10898;48.072;11.682;2023-04-22T07:03:54;1.15;;;1.08;;
21472;SDS011;10898;48.072;11.682;2023-04-22T07:05:56;1.73;;;1.20;;
21472;SDS011;10898;48.072;11.682;2023-04-22T07:07:58;1.38;;;1.27;;
21472;SDS011;10898;48.072;11.682;2023-04-22T07:10:00;2.50;;;1.27;;
21472;SDS011;10898;48.072;11.682;2023-04-22T07:12:02;0.98;;;0.90;;
21472;SDS011;10898;48.072;11.682;2023-04-22T07:14:05;1.10;;;1.00;;
21472;SDS011;10898;48.072;11.682;2023-04-22T07:16:07;1.33;;;1.13;;
21472;SDS011;10898;48.072;11.682;2023-04-22T07:18:09;1.25;;;1.17;;
21472;SDS011;10898;48.072;11.682;2023-04-22T07:20:11;1.08;;;0.98;;
21472;SDS011;10898;48.072;11.682;2023-04-22T07:22:13;1.80;;;1.10;;
21472;SDS011;10898;48.072;11.682;2023-04-22T07:24:16;1.85;;;0.90;;
21472;SDS011;10898;48.072;11.682;2023-04-22T07:26:18;0.75;;;0.75;;
21472;SDS011;10898;48.072;11.682;2023-04-22T07:28:21;1.00;;;0.98;;
21472;SDS011;10898;48.072;11.682;2023-04-22T07:30:23;1.20;;;1.10;;
21472;SDS011;10898;48.072;11.682;2023-04-22T07:32:25;1.23;;;1.10;;
21472;SDS011;10898;48.072;11.682;2023-04-22T07:34:27;1.00;;;0.90;;
21472;SDS011;10898;48.072;11.682;2023-04-22T07:36:30;0.82;;;0.82;;
21472;SDS011;10898;48.072;11.682;2023-04-22T07:40:35;1.67;;;0.88;;
21472;SDS011;10898;48.072;11.682;2023-04-22T07:42:37;1.60;;;0.90;;
21472;SDS011;10898;48.072;11.682;2023-04-22T07:44:40;0.93;;;0.93;;
21472;SDS011;10898;48.072;11.682;2023-04-22T07:46:43;0.80;;;0.80;;
21472;SDS011;10898;48.072;11.682;2023-04-22T07:48:45;0.90;;;0.90;;
21472;SDS011;10898;48.072;11.682;2023-04-22T07:50:47;0.88;;;0.88;;
21472;SDS011;10898;48.072;11.682;2023-04-22T07:52:49;1.45;;;1.00;;
21472;SDS011;10898;48.072;11.682;2023-04-22T07:54:52;1.05;;;0.95;;
21472;SDS011;10898;48.072;11.682;2023-04-22T07:56:54;1.00;;;0.88;;
21472;SDS011;10898;48.072;11.682;2023-04-22T07:58:58;0.80;;;0.80;;
21472;SDS011;10898;48.072;11.682;2023-04-22T08:01:00;1.08;;;0.90;;
21472;SDS011;10898;48.072;11.682;2023-04-22T08:03:03;1.15;;;0.93;;
21472;SDS011;10898;48.072;11.682;2023-04-22T08:05:05;0.70;;;0.70;;
21472;SDS011;10898;48.072;11.682;2023-04-22T08:07:08;3.40;;;0.77;;
21472;SDS011;10898;48.072;11.682;2023-04-22T08:09:30;0.80;;;0.80;;
21472;SDS011;10898;48.072;11.682;2023-04-22T08:11:32;0.80;;;0.80;;
21472;SDS011;10898;48.072;11.682;2023-04-22T08:13:35;0.80;;;0.80;;
21472;SDS011;10898;48.072;11.682;2023-04-22T08:15:37;0.70;;;0.70;;
21472;SDS011;10898;48.072;11.682;2023-04-22T08:17:40;0.77;;;0.77;;
21472;SDS011;10898;48.072;11.682;2023-04-22T08:19:42;0.55;;;0.55;;
21472;SDS011;10898;48.072;11.682;2023-04-22T08:21:44;0.70;;;0.70;;
21472;SDS011;10898;48.072;11.682;2023-04-22T08:23:47;0.60;;;0.60;;
21472;SDS011;10898;48.072;11.682;2023-04-22T08:25:49;1.70;;;0.93;;
21472;SDS011;10898;48.072;11.682;2023-04-22T08:29:54;0.70;;;0.70;;
21472;SDS011;10898;48.072;11.682;2023-04-22T08:31:56;0.73;;;0.73;;
21472;SDS011;10898;48.072;11.682;2023-04-22T08:33:58;0.77;;;0.77;;
21472;SDS011;10898;48.072;11.682;2023-04-22T08:36:01;1.08;;;0.80;;
21472;SDS011;10898;48.072;11.682;2023-04-22T08:38:03;0.70;;;0.70;;
21472;SDS011;10898;48.072;11.682;2023-04-22T08:40:06;0.80;;;0.80;;
21472;SDS011;10898;48.072;11.682;2023-04-22T08:42:09;0.80;;;0.80;;
21472;SDS011;10898;48.072;11.682;2023-04-22T08:44:11;2.50;;;0.60;;
21472;SDS011;10898;48.072;11.682;2023-04-22T08:46:14;1.75;;;0.68;;
21472;SDS011;10898;48.072;11.682;2023-04-22T08:48:16;0.70;;;0.70;;
21472;SDS011;10898;48.072;11.682;2023-04-22T08:50:20;1.67;;;1.00;;
21472;SDS011;10898;48.072;11.682;2023-04-22T08:52:22;2.03;;;1.02;;
21472;SDS011;10898;48.072;11.682;2023-04-22T08:54:24;1.05;;;0.95;;
21472;SDS011;10898;48.072;11.682;2023-04-22T08:56:27;0.80;;;0.80;;
21472;SDS011;10898;48.072;11.682;2023-04-22T08:58:29;1.20;;;1.10;;
21472;SDS011;10898;48.072;11.682;2023-04-22T09:00:33;2.00;;;0.70;;
21472;SDS011;10898;48.072;11.682;2023-04-22T09:02:36;0.95;;;0.95;;
21472;SDS011;10898;48.072;11.682;2023-04-22T09:04:39;1.25;;;0.80;;
21472;SDS011;10898;48.072;11.682;2023-04-22T09:06:43;0.80;;;0.80;;
21472;SDS011;10898;48.072;11.682;2023-04-22T09:08:46;1.00;;;0.90;;
21472;SDS011;10898;48.072;11.682;2023-04-22T09:10:48;2.03;;;1.65;;
21472;SDS011;10898;48.072;11.682;2023-04-22T09:12:51;3.47;;;1.23;;
21472;SDS011;10898;48.072;11.682;2023-04-22T09:14:53;3.45;;;1.15;;
21472;SDS011;10898;48.072;11.682;2023-04-22T09:16:56;0.90;;;0.90;;
21472;SDS011;10898;48.072;11.682;2023-04-22T09:18:59;1.00;;;0.90;;
21472;SDS011;10898;48.072;11.682;2023-04-22T09:21:01;1.20;;;1.10;;
21472;SDS011;10898;48.072;11.682;2023-04-22T09:23:04;1.33;;;0.70;;
21472;SDS011;10898;48.072;11.682;2023-04-22T09:25:14;1.70;;;1.00;;
21472;SDS011;10898;48.072;11.682;2023-04-22T09:27:17;0.95;;;0.90;;
21472;SDS011;10898;48.072;11.682;2023-04-22T09:29:20;0.88;;;0.88;;
21472;SDS011;10898;48.072;11.682;2023-04-22T09:31:22;1.30;;;0.98;;
21472;SDS011;10898;48.072;11.682;2023-04-22T09:33:25;1.13;;;0.93;;
21472;SDS011;10898;48.072;11.682;2023-04-22T09:35:28;1.08;;;0.98;;
21472;SDS011;10898;48.072;11.682;2023-04-22T09:37:31;1.98;;;1.02;;
21472;SDS011;10898;48.072;11.682;2023-04-22T09:39:49;0.80;;;0.73;;
21472;SDS011;10898;48.072;11.682;2023-04-22T09:41:53;1.73;;;1.08;;
21472;SDS011;10898;48.072;11.682;2023-04-22T09:43:57;0.90;;;0.90;;
21472;SDS011;10898;48.072;11.682;2023-04-22T09:45:59;0.70;;;0.70;;
21472;SDS011;10898;48.072;11.682;2023-04-22T09:48:02;0.93;;;0.90;;
21472;SDS011;10898;48.072;11.682;2023-04-22T09:50:08;2.38;;;1.00;;
21472;SDS011;10898;48.072;11.682;2023-04-22T09:52:10;1.08;;;1.08;;
21472;SDS011;10898;48.072;11.682;2023-04-22T09:54:12;0.77;;;0.77;;
21472;SDS011;10898;48.072;11.682;2023-04-22T09:56:14;1.42;;;0.82;;
21472;SDS011;10898;48.072;11.682;2023-04-22T10:00:20;2.03;;;1.07;;
21472;SDS011;10898;48.072;11.682;2023-04-22T10:02:29;1.10;;;1.00;;
21472;SDS011;10898;48.072;11.682;2023-04-22T10:04:31;0.80;;;0.80;;
21472;SDS011;10898;48.072;11.682;2023-04-22T10:06:34;1.13;;;1.02;;
21472;SDS011;10898;48.072;11.682;2023-04-22T10:08:37;1.40;;;1.30;;
21472;SDS011;10898;48.072;11.682;2023-04-22T10:10:39;2.05;;;1.00;;
21472;SDS011;10898;48.072;11.682;2023-04-22T10:12:42;0.95;;;0.95;;
21472;SDS011;10898;48.072;11.682;2023-04-22T10:14:44;0.85;;;0.85;;
21472;SDS011;10898;48.072;11.682;2023-04-22T10:16:46;1.95;;;1.00;;
21472;SDS011;10898;48.072;11.682;2023-04-22T10:18:50;1.00;;;0.98;;
21472;SDS011;10898;48.072;11.682;2023-04-22T10:20:53;0.95;;;0.90;;
21472;SDS011;10898;48.072;11.682;2023-04-22T10:22:57;0.82;;;0.82;;
21472;SDS011;10898;48.072;11.682;2023-04-22T10:27:02;0.90;;;0.90;;
21472;SDS011;10898;48.072;11.682;2023-04-22T10:29:07;1.00;;;0.90;;
21472;SDS011;10898;48.072;11.682;2023-04-22T10:31:20;1.00;;;0.90;;
21472;SDS011;10898;48.072;11.682;2023-04-22T10:35:29;1.27;;;0.98;;
21472;SDS011;10898;48.072;11.682;2023-04-22T10:37:31;1.40;;;1.00;;
21472;SDS011;10898;48.072;11.682;2023-04-22T10:39:34;0.77;;;0.77;;
21472;SDS011;10898;48.072;11.682;2023-04-22T10:41:36;1.00;;;1.00;;
21472;SDS011;10898;48.072;11.682;2023-04-22T10:43:42;2.55;;;1.35;;
21472;SDS011;10898;48.072;11.682;2023-04-22T10:45:45;0.80;;;0.80;;
21472;SDS011;10898;48.072;11.682;2023-04-22T10:47:47;1.00;;;0.90;;
21472;SDS011;10898;48.072;11.682;2023-04-22T10:49:49;1.08;;;0.90;;
21472;SDS011;10898;48.072;11.682;2023-04-22T10:51:55;0.85;;;0.85;;
21472;SDS011;10898;48.072;11.682;2023-04-22T10:54:01;1.35;;;0.90;;
21472;SDS011;10898;48.072;11.682;2023-04-22T10:56:03;1.20;;;1.10;;
21472;SDS011;10898;48.072;11.682;2023-04-22T10:58:18;0.90;;;0.90;;
21472;SDS011;10898;48.072;11.682;2023-04-22T11:02:23;7.50;;;1.23;;
21472;SDS011;10898;48.072;11.682;2023-04-22T11:04:26;3.20;;;1.05;;
21472;SDS011;10898;48.072;11.682;2023-04-22T11:06:28;4.50;;;0.90;;
21472;SDS011;10898;48.072;11.682;2023-04-22T11:08:31;1.25;;;0.70;;
21472;SDS011;10898;48.072;11.682;2023-04-22T11:10:43;0.80;;;0.80;;
21472;SDS011;10898;48.072;11.682;2023-04-22T11:12:47;3.05;;;1.00;;
21472;SDS011;10898;48.072;11.682;2023-04-22T11:14:50;7.63;;;1.00;;
21472;SDS011;10898;48.072;11.682;2023-04-22T11:16:52;3.17;;;0.70;;
21472;SDS011;10898;48.072;11.682;2023-04-22T11:18:55;3.72;;;0.90;;
21472;SDS011;10898;48.072;11.682;2023-04-22T11:23:06;0.93;;;0.90;;
21472;SDS011;10898;48.072;11.682;2023-04-22T11:25:09;0.93;;;0.82;;
21472;SDS011;10898;48.072;11.682;2023-04-22T11:27:11;1.98;;;1.00;;
21472;SDS011;10898;48.072;11.682;2023-04-22T11:29:13;0.70;;;0.70;;
21472;SDS011;10898;48.072;11.682;2023-04-22T11:31:16;1.25;;;0.95;;
21472;SDS011;10898;48.072;11.682;2023-04-22T11:33:18;0.63;;;0.63;;
21472;SDS011;10898;48.072;11.682;2023-04-22T11:35:23;0.82;;;0.82;;
21472;SDS011;10898;48.072;11.682;2023-04-22T11:37:25;2.97;;;0.85;;
21472;SDS011;10898;48.072;11.682;2023-04-22T11:39:35;0.70;;;0.70;;
21472;SDS011;10898;48.072;11.682;2023-04-22T11:41:50;0.90;;;0.90;;
21472;SDS011;10898;48.072;11.682;2023-04-22T11:43:52;1.88;;;0.80;;
21472;SDS011;10898;48.072;11.682;2023-04-22T11:45:55;1.20;;;1.10;;
21472;SDS011;10898;48.072;11.682;2023-04-22T11:47:58;0.70;;;0.70;;
21472;SDS011;10898;48.072;11.682;2023-04-22T11:50:01;1.30;;;1.00;;
21472;SDS011;10898;48.072;11.682;2023-04-22T11:52:07;6.15;;;2.20;;
21472;SDS011;10898;48.072;11.682;2023-04-22T11:54:09;5.85;;;2.70;;
21472;SDS011;10898;48.072;11.682;2023-04-22T11:56:11;1.13;;;1.00;;
21472;SDS011;10898;48.072;11.682;2023-04-22T11:58:15;1.33;;;1.23;;
21472;SDS011;10898;48.072;11.682;2023-04-22T12:00:17;2.55;;;1.45;;
21472;SDS011;10898;48.072;11.682;2023-04-22T12:02:19;1.50;;;0.90;;
21472;SDS011;10898;48.072;11.682;2023-04-22T12:04:25;0.90;;;0.80;;
21472;SDS011;10898;48.072;11.682;2023-04-22T12:06:28;1.02;;;0.82;;
21472;SDS011;10898;48.072;11.682;2023-04-22T12:08:33;0.80;;;0.80;;
21472;SDS011;10898;48.072;11.682;2023-04-22T12:10:40;2.85;;;0.95;;
21472;SDS011;10898;48.072;11.682;2023-04-22T12:12:42;1.42;;;0.75;;
21472;SDS011;10898;48.072;11.682;2023-04-22T12:14:44;0.80;;;0.80;;
21472;SDS011;10898;48.072;11.682;2023-04-22T12:16:47;0.80;;;0.80;;
21472;SDS011;10898;48.072;11.682;2023-04-22T12:18:54;1.40;;;0.80;;
21472;SDS011;10898;48.072;11.682;2023-04-22T12:21:00;1.20;;;1.10;;
21472;SDS011;10898;48.072;11.682;2023-04-22T12:23:03;0.82;;;0.82;;
21472;SDS011;10898;48.072;11.682;2023-04-22T12:25:05;1.50;;;0.70;;
21472;SDS011;10898;48.072;11.682;2023-04-22T12:27:07;1.42;;;1.00;;
21472;SDS011;10898;48.072;11.682;2023-04-22T12:29:10;0.90;;;0.90;;
21472;SDS011;10898;48.072;11.682;2023-04-22T12:31:12;1.88;;;0.90;;
21472;SDS011;10898;48.072;11.682;2023-04-22T12:33:15;1.00;;;0.95;;
21472;SDS011;10898;48.072;11.682;2023-04-22T12:35:17;0.88;;;0.80;;
21472;SDS011;10898;48.072;11.682;2023-04-22T12:37:19;0.90;;;0.90;;
21472;SDS011;10898;48.072;11.682;2023-04-22T12:39:21;0.90;;;0.90;;